sensor_id;sensor_type;location;lat;lon;timestamp;P1;durP1;ratioP1;P2;durP2;ratioP2
70153;SDS011;57519;51.494;-2.626;2022-10-31T00:02:03;14.00;;;9.60;;
70153;SDS011;57519;51.494;-2.626;2022-10-31T00:04:29;24.23;;;9.25;;
70153;SDS011;57519;51.494;-2.626;2022-10-31T00:06:54;20.57;;;8.87;;
70153;SDS011;57519;51.494;-2.626;2022-10-31T00:09:20;19.17;;;9.00;;
70153;SDS011;57519;51.494;-2.626;2022-10-31T00:11:45;24.20;;;7.27;;
70153;SDS011;57519;51.494;-2.626;2022-10-31T00:14:10;20.33;;;7.83;;
70153;SDS011;57519;51.494;-2.626;2022-10-31T00:16:36;20.23;;;7.97;;
70153;SDS011;57519;51.494;-2.626;2022-10-31T00:19:02;20.50;;;7.93;;
70153;SDS011;57519;51.494;-2.626;2022-10-31T00:21:29;19.13;;;8.38;;
70153;SDS011;57519;51.494;-2.626;2022-10-31T00:23:56;20.08;;;8.10;;
70153;SDS011;57519;51.494;-2.626;2022-10-31T00:26:22;20.50;;;8.77;;
70153;SDS011;57519;51.494;-2.626;2022-10-31T00:28:48;19.48;;;8.27;;
70153;SDS011;57519;51.494;-2.626;2022-10-31T00:31:14;14.83;;;8.23;;
70153;SDS011;57519;51.494;-2.626;2022-10-31T00:33:39;24.52;;;8.90;;
70153;SDS011;57519;51.494;-2.626;2022-10-31T00:36:06;19.45;;;8.73;;
70153;SDS011;57519;51.494;-2.626;2022-10-31T00:38:32;26.13;;;8.63;;
70153;SDS011;57519;51.494;-2.626;2022-10-31T00:40:58;17.98;;;9.95;;
70153;SDS011;57519;51.494;-2.626;2022-10-31T00:43:24;18.33;;;9.80;;
70153;SDS011;57519;51.494;-2.626;2022-10-31T00:45:49;18.73;;;10.60;;
70153;SDS011;57519;51.494;-2.626;2022-10-31T00:48:14;22.00;;;11.57;;
70153;SDS011;57519;51.494;-2.626;2022-10-31T00:50:41;21.67;;;12.17;;
70153;SDS011;57519;51.494;-2.626;2022-10-31T00:53:07;23.13;;;11.05;;
70153;SDS011;57519;51.494;-2.626;2022-10-31T00:55:32;20.70;;;6.20;;
70153;SDS011;57519;51.494;-2.626;2022-10-31T00:57:58;15.23;;;5.10;;
70153;SDS011;57519;51.494;-2.626;2022-10-31T01:00:24;19.60;;;6.23;;
70153;SDS011;57519;51.494;-2.626;2022-10-31T01:02:49;13.60;;;4.70;;
70153;SDS011;57519;51.494;-2.626;2022-10-31T01:05:15;12.38;;;4.28;;
70153;SDS011;57519;51.494;-2.626;2022-10-31T01:07:40;11.20;;;4.97;;
70153;SDS011;57519;51.494;-2.626;2022-10-31T01:10:06;16.08;;;5.53;;
70153;SDS011;57519;51.494;-2.626;2022-10-31T01:12:36;14.40;;;5.33;;
70153;SDS011;57519;51.494;-2.626;2022-10-31T01:15:09;13.60;;;5.25;;
70153;SDS011;57519;51.494;-2.626;2022-10-31T01:17:36;16.98;;;6.45;;
70153;SDS011;57519;51.494;-2.626;2022-10-31T01:20:02;19.93;;;6.23;;
70153;SDS011;57519;51.494;-2.626;2022-10-31T01:22:28;20.02;;;6.50;;
70153;SDS011;57519;51.494;-2.626;2022-10-31T01:24:54;19.77;;;6.93;;
70153;SDS011;57519;51.494;-2.626;2022-10-31T01:27:19;16.13;;;5.67;;
70153;SDS011;57519;51.494;-2.626;2022-10-31T01:29:48;18.92;;;4.88;;
70153;SDS011;57519;51.494;-2.626;2022-10-31T01:32:13;21.73;;;6.70;;
70153;SDS011;57519;51.494;-2.626;2022-10-31T01:34:39;18.92;;;5.68;;
70153;SDS011;57519;51.494;-2.626;2022-10-31T01:37:04;17.93;;;6.23;;
70153;SDS011;57519;51.494;-2.626;2022-10-31T01:39:29;18.13;;;5.43;;
70153;SDS011;57519;51.494;-2.626;2022-10-31T01:41:55;14.03;;;5.73;;
70153;SDS011;57519;51.494;-2.626;2022-10-31T01:49:47;18.75;;;5.57;;
70153;SDS011;57519;51.494;-2.626;2022-10-31T01:52:24;17.10;;;5.40;;
70153;SDS011;57519;51.494;-2.626;2022-10-31T01:54:56;15.37;;;5.93;;
70153;SDS011;57519;51.494;-2.626;2022-10-31T01:57:25;12.35;;;5.60;;
70153;SDS011;57519;51.494;-2.626;2022-10-31T01:59:51;13.82;;;4.93;;
70153;SDS011;57519;51.494;-2.626;2022-10-31T02:02:22;10.90;;;5.05;;
70153;SDS011;57519;51.494;-2.626;2022-10-31T02:04:49;16.88;;;5.40;;
70153;SDS011;57519;51.494;-2.626;2022-10-31T02:07:16;16.00;;;4.57;;
70153;SDS011;57519;51.494;-2.626;2022-10-31T02:09:46;17.45;;;5.18;;
70153;SDS011;57519;51.494;-2.626;2022-10-31T02:12:14;14.05;;;5.40;;
70153;SDS011;57519;51.494;-2.626;2022-10-31T02:14:41;15.10;;;4.90;;
70153;SDS011;57519;51.494;-2.626;2022-10-31T02:17:07;18.17;;;5.22;;
70153;SDS011;57519;51.494;-2.626;2022-10-31T02:25:21;24.50;;;5.90;;
70153;SDS011;57519;51.494;-2.626;2022-10-31T02:35:52;15.00;;;5.82;;
70153;SDS011;57519;51.494;-2.626;2022-10-31T02:41:13;20.42;;;6.40;;
70153;SDS011;57519;51.494;-2.626;2022-10-31T02:43:54;18.48;;;5.38;;
70153;SDS011;57519;51.494;-2.626;2022-10-31T02:48:48;19.10;;;5.72;;
70153;SDS011;57519;51.494;-2.626;2022-10-31T02:51:17;19.23;;;7.07;;
70153;SDS011;57519;51.494;-2.626;2022-10-31T02:53:43;15.52;;;4.88;;
70153;SDS011;57519;51.494;-2.626;2022-10-31T02:56:16;9.40;;;5.87;;
70153;SDS011;57519;51.494;-2.626;2022-10-31T02:58:53;18.08;;;6.18;;
70153;SDS011;57519;51.494;-2.626;2022-10-31T03:02:07;20.13;;;6.35;;
70153;SDS011;57519;51.494;-2.626;2022-10-31T03:04:24;11.88;;;7.47;;
70153;SDS011;57519;51.494;-2.626;2022-10-31T03:09:46;20.07;;;5.77;;
70153;SDS011;57519;51.494;-2.626;2022-10-31T03:14:56;18.73;;;6.47;;
70153;SDS011;57519;51.494;-2.626;2022-10-31T03:18:25;15.45;;;6.43;;
70153;SDS011;57519;51.494;-2.626;2022-10-31T03:20:34;18.33;;;6.72;;
70153;SDS011;57519;51.494;-2.626;2022-10-31T03:23:04;15.27;;;6.47;;
70153;SDS011;57519;51.494;-2.626;2022-10-31T03:25:33;11.88;;;6.60;;
70153;SDS011;57519;51.494;-2.626;2022-10-31T03:28:02;22.90;;;6.97;;
70153;SDS011;57519;51.494;-2.626;2022-10-31T03:30:30;16.73;;;6.43;;
70153;SDS011;57519;51.494;-2.626;2022-10-31T03:33:00;13.57;;;6.97;;
70153;SDS011;57519;51.494;-2.626;2022-10-31T03:35:29;13.63;;;5.83;;
70153;SDS011;57519;51.494;-2.626;2022-10-31T03:37:57;15.32;;;6.32;;
70153;SDS011;57519;51.494;-2.626;2022-10-31T03:40:25;17.05;;;5.35;;
70153;SDS011;57519;51.494;-2.626;2022-10-31T03:42:59;14.70;;;6.28;;
70153;SDS011;57519;51.494;-2.626;2022-10-31T03:45:29;13.98;;;6.53;;
70153;SDS011;57519;51.494;-2.626;2022-10-31T03:47:56;22.20;;;7.87;;
70153;SDS011;57519;51.494;-2.626;2022-10-31T03:50:24;14.93;;;7.38;;
70153;SDS011;57519;51.494;-2.626;2022-10-31T03:52:55;25.25;;;7.55;;
70153;SDS011;57519;51.494;-2.626;2022-10-31T03:55:30;28.65;;;7.22;;
70153;SDS011;57519;51.494;-2.626;2022-10-31T03:58:11;19.30;;;7.15;;
70153;SDS011;57519;51.494;-2.626;2022-10-31T04:00:44;14.67;;;8.13;;
70153;SDS011;57519;51.494;-2.626;2022-10-31T04:03:12;20.00;;;7.60;;
70153;SDS011;57519;51.494;-2.626;2022-10-31T04:05:42;14.82;;;6.43;;
70153;SDS011;57519;51.494;-2.626;2022-10-31T04:08:11;19.15;;;7.90;;
70153;SDS011;57519;51.494;-2.626;2022-10-31T04:10:40;26.70;;;7.30;;
70153;SDS011;57519;51.494;-2.626;2022-10-31T04:13:16;20.17;;;6.87;;
70153;SDS011;57519;51.494;-2.626;2022-10-31T04:15:45;15.85;;;6.95;;
70153;SDS011;57519;51.494;-2.626;2022-10-31T04:18:12;16.73;;;5.68;;
70153;SDS011;57519;51.494;-2.626;2022-10-31T04:20:39;21.77;;;7.00;;
70153;SDS011;57519;51.494;-2.626;2022-10-31T04:23:14;14.20;;;5.80;;
70153;SDS011;57519;51.494;-2.626;2022-10-31T04:25:48;11.52;;;6.60;;
70153;SDS011;57519;51.494;-2.626;2022-10-31T04:28:13;18.17;;;5.90;;
70153;SDS011;57519;51.494;-2.626;2022-10-31T04:30:38;16.60;;;7.13;;
70153;SDS011;57519;51.494;-2.626;2022-10-31T04:33:04;17.92;;;6.45;;
70153;SDS011;57519;51.494;-2.626;2022-10-31T04:35:29;14.03;;;5.83;;
70153;SDS011;57519;51.494;-2.626;2022-10-31T04:37:55;11.30;;;5.67;;
70153;SDS011;57519;51.494;-2.626;2022-10-31T04:40:20;24.40;;;6.83;;
70153;SDS011;57519;51.494;-2.626;2022-10-31T04:42:45;16.10;;;5.67;;
70153;SDS011;57519;51.494;-2.626;2022-10-31T04:45:11;14.13;;;6.13;;
70153;SDS011;57519;51.494;-2.626;2022-10-31T04:47:36;13.70;;;6.43;;
70153;SDS011;57519;51.494;-2.626;2022-10-31T04:50:02;17.53;;;5.67;;
70153;SDS011;57519;51.494;-2.626;2022-10-31T04:52:28;22.35;;;5.88;;
70153;SDS011;57519;51.494;-2.626;2022-10-31T04:54:53;13.27;;;6.30;;
70153;SDS011;57519;51.494;-2.626;2022-10-31T04:57:18;22.23;;;6.40;;
70153;SDS011;57519;51.494;-2.626;2022-10-31T04:59:44;22.53;;;6.60;;
70153;SDS011;57519;51.494;-2.626;2022-10-31T05:02:09;20.85;;;6.38;;
70153;SDS011;57519;51.494;-2.626;2022-10-31T05:04:34;17.10;;;6.67;;
70153;SDS011;57519;51.494;-2.626;2022-10-31T05:07:00;13.43;;;5.97;;
70153;SDS011;57519;51.494;-2.626;2022-10-31T05:09:25;20.17;;;7.10;;
70153;SDS011;57519;51.494;-2.626;2022-10-31T05:11:51;19.80;;;6.40;;
70153;SDS011;57519;51.494;-2.626;2022-10-31T05:14:16;16.00;;;6.40;;
70153;SDS011;57519;51.494;-2.626;2022-10-31T05:16:41;14.83;;;6.77;;
70153;SDS011;57519;51.494;-2.626;2022-10-31T05:19:07;16.03;;;6.13;;
70153;SDS011;57519;51.494;-2.626;2022-10-31T05:21:32;22.47;;;6.83;;
70153;SDS011;57519;51.494;-2.626;2022-10-31T05:23:57;20.50;;;7.87;;
70153;SDS011;57519;51.494;-2.626;2022-10-31T05:26:23;14.17;;;7.20;;
70153;SDS011;57519;51.494;-2.626;2022-10-31T05:28:48;17.40;;;7.53;;
70153;SDS011;57519;51.494;-2.626;2022-10-31T05:31:14;16.83;;;7.23;;
70153;SDS011;57519;51.494;-2.626;2022-10-31T05:33:39;17.53;;;7.67;;
70153;SDS011;57519;51.494;-2.626;2022-10-31T05:36:04;9.13;;;6.90;;
70153;SDS011;57519;51.494;-2.626;2022-10-31T05:38:30;21.48;;;8.45;;
70153;SDS011;57519;51.494;-2.626;2022-10-31T05:40:55;21.90;;;7.53;;
70153;SDS011;57519;51.494;-2.626;2022-10-31T05:43:26;15.85;;;8.70;;
70153;SDS011;57519;51.494;-2.626;2022-10-31T05:45:55;15.33;;;7.77;;
70153;SDS011;57519;51.494;-2.626;2022-10-31T05:48:21;15.65;;;8.68;;
70153;SDS011;57519;51.494;-2.626;2022-10-31T05:50:47;20.30;;;8.20;;
70153;SDS011;57519;51.494;-2.626;2022-10-31T05:53:13;20.48;;;9.45;;
70153;SDS011;57519;51.494;-2.626;2022-10-31T05:55:39;26.83;;;10.43;;
70153;SDS011;57519;51.494;-2.626;2022-10-31T05:58:08;21.13;;;9.25;;
70153;SDS011;57519;51.494;-2.626;2022-10-31T06:00:34;18.70;;;9.27;;
70153;SDS011;57519;51.494;-2.626;2022-10-31T06:03:04;15.43;;;9.98;;
70153;SDS011;57519;51.494;-2.626;2022-10-31T06:05:31;16.58;;;9.50;;
70153;SDS011;57519;51.494;-2.626;2022-10-31T06:07:57;20.27;;;9.13;;
70153;SDS011;57519;51.494;-2.626;2022-10-31T06:10:23;12.65;;;8.18;;
70153;SDS011;57519;51.494;-2.626;2022-10-31T06:12:48;19.80;;;9.47;;
70153;SDS011;57519;51.494;-2.626;2022-10-31T06:15:14;18.10;;;8.70;;
70153;SDS011;57519;51.494;-2.626;2022-10-31T06:17:40;23.75;;;8.80;;
70153;SDS011;57519;51.494;-2.626;2022-10-31T06:20:06;24.93;;;10.13;;
70153;SDS011;57519;51.494;-2.626;2022-10-31T06:22:32;17.77;;;8.07;;
70153;SDS011;57519;51.494;-2.626;2022-10-31T06:24:57;13.83;;;7.90;;
70153;SDS011;57519;51.494;-2.626;2022-10-31T06:27:23;16.17;;;8.10;;
70153;SDS011;57519;51.494;-2.626;2022-10-31T06:29:48;22.10;;;7.83;;
70153;SDS011;57519;51.494;-2.626;2022-10-31T06:32:14;13.25;;;8.00;;
70153;SDS011;57519;51.494;-2.626;2022-10-31T06:34:39;21.03;;;7.10;;
70153;SDS011;57519;51.494;-2.626;2022-10-31T06:37:06;15.15;;;8.00;;
70153;SDS011;57519;51.494;-2.626;2022-10-31T06:39:32;16.65;;;7.68;;
70153;SDS011;57519;51.494;-2.626;2022-10-31T06:41:58;20.77;;;8.20;;
70153;SDS011;57519;51.494;-2.626;2022-10-31T06:44:24;13.43;;;7.60;;
70153;SDS011;57519;51.494;-2.626;2022-10-31T06:46:49;20.60;;;8.83;;
70153;SDS011;57519;51.494;-2.626;2022-10-31T06:49:14;22.83;;;8.73;;
70153;SDS011;57519;51.494;-2.626;2022-10-31T06:51:40;16.77;;;8.30;;
70153;SDS011;57519;51.494;-2.626;2022-10-31T06:54:06;13.20;;;7.28;;
70153;SDS011;57519;51.494;-2.626;2022-10-31T06:56:31;18.53;;;7.50;;
70153;SDS011;57519;51.494;-2.626;2022-10-31T06:58:57;18.57;;;6.97;;
70153;SDS011;57519;51.494;-2.626;2022-10-31T07:01:22;12.17;;;6.07;;
70153;SDS011;57519;51.494;-2.626;2022-10-31T07:03:47;17.40;;;6.63;;
70153;SDS011;57519;51.494;-2.626;2022-10-31T07:06:13;15.97;;;7.13;;
70153;SDS011;57519;51.494;-2.626;2022-10-31T07:08:38;17.70;;;8.33;;
70153;SDS011;57519;51.494;-2.626;2022-10-31T07:11:04;19.87;;;7.83;;
70153;SDS011;57519;51.494;-2.626;2022-10-31T07:13:29;17.80;;;7.70;;
70153;SDS011;57519;51.494;-2.626;2022-10-31T07:15:58;18.63;;;7.73;;
70153;SDS011;57519;51.494;-2.626;2022-10-31T07:18:25;13.77;;;7.10;;
70153;SDS011;57519;51.494;-2.626;2022-10-31T07:20:51;20.97;;;8.97;;
70153;SDS011;57519;51.494;-2.626;2022-10-31T07:23:17;18.90;;;7.10;;
70153;SDS011;57519;51.494;-2.626;2022-10-31T07:25:43;18.87;;;6.80;;
70153;SDS011;57519;51.494;-2.626;2022-10-31T07:28:08;17.83;;;7.47;;
70153;SDS011;57519;51.494;-2.626;2022-10-31T07:30:34;14.10;;;6.47;;
70153;SDS011;57519;51.494;-2.626;2022-10-31T07:33:00;17.60;;;6.67;;
70153;SDS011;57519;51.494;-2.626;2022-10-31T07:35:26;23.03;;;6.93;;
70153;SDS011;57519;51.494;-2.626;2022-10-31T07:37:53;16.90;;;6.07;;
70153;SDS011;57519;51.494;-2.626;2022-10-31T07:40:20;20.20;;;7.72;;
70153;SDS011;57519;51.494;-2.626;2022-10-31T07:42:47;20.50;;;8.77;;
70153;SDS011;57519;51.494;-2.626;2022-10-31T07:45:15;18.38;;;6.32;;
70153;SDS011;57519;51.494;-2.626;2022-10-31T07:47:49;14.90;;;6.95;;
70153;SDS011;57519;51.494;-2.626;2022-10-31T07:50:25;16.67;;;6.63;;
70153;SDS011;57519;51.494;-2.626;2022-10-31T07:52:59;19.77;;;6.93;;
70153;SDS011;57519;51.494;-2.626;2022-10-31T07:55:29;17.20;;;6.90;;
70153;SDS011;57519;51.494;-2.626;2022-10-31T07:57:56;17.77;;;6.53;;
70153;SDS011;57519;51.494;-2.626;2022-10-31T08:00:22;17.90;;;7.30;;
70153;SDS011;57519;51.494;-2.626;2022-10-31T08:02:48;18.85;;;7.05;;
70153;SDS011;57519;51.494;-2.626;2022-10-31T08:05:20;14.13;;;6.23;;
70153;SDS011;57519;51.494;-2.626;2022-10-31T08:07:46;16.90;;;6.70;;
70153;SDS011;57519;51.494;-2.626;2022-10-31T08:10:11;19.70;;;7.53;;
70153;SDS011;57519;51.494;-2.626;2022-10-31T08:12:37;23.60;;;7.13;;
70153;SDS011;57519;51.494;-2.626;2022-10-31T08:15:02;16.53;;;5.60;;
70153;SDS011;57519;51.494;-2.626;2022-10-31T08:17:28;22.85;;;6.43;;
70153;SDS011;57519;51.494;-2.626;2022-10-31T08:19:54;16.13;;;4.90;;
70153;SDS011;57519;51.494;-2.626;2022-10-31T08:22:19;15.32;;;5.78;;
70153;SDS011;57519;51.494;-2.626;2022-10-31T08:24:45;20.40;;;6.00;;
70153;SDS011;57519;51.494;-2.626;2022-10-31T08:27:10;15.20;;;5.67;;
70153;SDS011;57519;51.494;-2.626;2022-10-31T08:29:36;15.73;;;5.00;;
70153;SDS011;57519;51.494;-2.626;2022-10-31T08:32:01;15.63;;;5.33;;
70153;SDS011;57519;51.494;-2.626;2022-10-31T08:34:26;13.43;;;4.85;;
70153;SDS011;57519;51.494;-2.626;2022-10-31T08:36:52;15.80;;;5.20;;
70153;SDS011;57519;51.494;-2.626;2022-10-31T08:39:17;13.87;;;5.00;;
70153;SDS011;57519;51.494;-2.626;2022-10-31T08:41:42;16.70;;;5.57;;
70153;SDS011;57519;51.494;-2.626;2022-10-31T08:44:08;17.63;;;4.83;;
70153;SDS011;57519;51.494;-2.626;2022-10-31T08:46:33;21.33;;;5.17;;
70153;SDS011;57519;51.494;-2.626;2022-10-31T08:48:59;37.80;;;10.33;;
70153;SDS011;57519;51.494;-2.626;2022-10-31T08:51:25;15.05;;;5.82;;
70153;SDS011;57519;51.494;-2.626;2022-10-31T08:53:50;13.13;;;5.33;;
70153;SDS011;57519;51.494;-2.626;2022-10-31T08:56:16;15.93;;;5.00;;
70153;SDS011;57519;51.494;-2.626;2022-10-31T08:58:41;15.47;;;5.03;;
70153;SDS011;57519;51.494;-2.626;2022-10-31T09:01:06;12.10;;;4.70;;
70153;SDS011;57519;51.494;-2.626;2022-10-31T09:03:32;22.53;;;5.23;;
70153;SDS011;57519;51.494;-2.626;2022-10-31T09:05:58;18.37;;;5.53;;
70153;SDS011;57519;51.494;-2.626;2022-10-31T09:08:25;16.02;;;5.35;;
70153;SDS011;57519;51.494;-2.626;2022-10-31T09:10:51;14.30;;;5.33;;
70153;SDS011;57519;51.494;-2.626;2022-10-31T09:13:18;18.50;;;5.80;;
70153;SDS011;57519;51.494;-2.626;2022-10-31T09:15:46;16.98;;;5.70;;
70153;SDS011;57519;51.494;-2.626;2022-10-31T09:18:13;12.75;;;4.57;;
70153;SDS011;57519;51.494;-2.626;2022-10-31T09:20:40;14.20;;;5.43;;
70153;SDS011;57519;51.494;-2.626;2022-10-31T09:23:07;12.98;;;4.90;;
70153;SDS011;57519;51.494;-2.626;2022-10-31T09:25:35;13.25;;;5.25;;
70153;SDS011;57519;51.494;-2.626;2022-10-31T09:28:01;12.37;;;5.43;;
70153;SDS011;57519;51.494;-2.626;2022-10-31T09:30:28;15.95;;;5.28;;
70153;SDS011;57519;51.494;-2.626;2022-10-31T09:32:59;13.68;;;5.28;;
70153;SDS011;57519;51.494;-2.626;2022-10-31T09:35:30;17.17;;;5.35;;
70153;SDS011;57519;51.494;-2.626;2022-10-31T09:38:00;11.33;;;5.43;;
70153;SDS011;57519;51.494;-2.626;2022-10-31T09:40:39;15.57;;;5.80;;
70153;SDS011;57519;51.494;-2.626;2022-10-31T09:45:45;15.75;;;5.72;;
70153;SDS011;57519;51.494;-2.626;2022-10-31T09:48:22;16.77;;;5.80;;
70153;SDS011;57519;51.494;-2.626;2022-10-31T09:50:55;11.27;;;5.35;;
70153;SDS011;57519;51.494;-2.626;2022-10-31T09:53:32;18.30;;;6.80;;
70153;SDS011;57519;51.494;-2.626;2022-10-31T09:56:25;18.75;;;6.53;;
70153;SDS011;57519;51.494;-2.626;2022-10-31T09:58:55;20.20;;;5.22;;
70153;SDS011;57519;51.494;-2.626;2022-10-31T10:04:26;19.33;;;5.55;;
70153;SDS011;57519;51.494;-2.626;2022-10-31T10:06:53;21.80;;;6.13;;
70153;SDS011;57519;51.494;-2.626;2022-10-31T10:09:20;15.65;;;5.90;;
70153;SDS011;57519;51.494;-2.626;2022-10-31T10:11:53;12.67;;;4.17;;
70153;SDS011;57519;51.494;-2.626;2022-10-31T10:14:33;11.57;;;4.55;;
70153;SDS011;57519;51.494;-2.626;2022-10-31T10:33:10;14.07;;;5.60;;
70153;SDS011;57519;51.494;-2.626;2022-10-31T10:35:41;10.98;;;4.22;;
70153;SDS011;57519;51.494;-2.626;2022-10-31T10:38:15;17.30;;;5.23;;
70153;SDS011;57519;51.494;-2.626;2022-10-31T10:41:02;15.23;;;5.40;;
70153;SDS011;57519;51.494;-2.626;2022-10-31T10:43:35;12.77;;;4.38;;
70153;SDS011;57519;51.494;-2.626;2022-10-31T10:49:00;16.67;;;5.63;;
70153;SDS011;57519;51.494;-2.626;2022-10-31T10:51:51;14.17;;;4.43;;
70153;SDS011;57519;51.494;-2.626;2022-10-31T10:59:45;8.43;;;3.88;;
70153;SDS011;57519;51.494;-2.626;2022-10-31T11:02:19;12.52;;;4.70;;
70153;SDS011;57519;51.494;-2.626;2022-10-31T11:04:51;14.57;;;4.90;;
70153;SDS011;57519;51.494;-2.626;2022-10-31T11:07:21;11.15;;;4.70;;
70153;SDS011;57519;51.494;-2.626;2022-10-31T11:09:47;12.85;;;4.15;;
70153;SDS011;57519;51.494;-2.626;2022-10-31T11:12:24;11.90;;;4.30;;
70153;SDS011;57519;51.494;-2.626;2022-10-31T11:14:55;11.32;;;4.90;;
70153;SDS011;57519;51.494;-2.626;2022-10-31T11:17:26;15.80;;;5.22;;
70153;SDS011;57519;51.494;-2.626;2022-10-31T11:22:39;17.05;;;4.72;;
70153;SDS011;57519;51.494;-2.626;2022-10-31T11:27:58;11.77;;;4.45;;
70153;SDS011;57519;51.494;-2.626;2022-10-31T11:30:28;14.30;;;4.65;;
70153;SDS011;57519;51.494;-2.626;2022-10-31T11:32:54;12.68;;;5.13;;
70153;SDS011;57519;51.494;-2.626;2022-10-31T11:35:20;13.20;;;5.40;;
70153;SDS011;57519;51.494;-2.626;2022-10-31T11:37:49;10.23;;;4.90;;
70153;SDS011;57519;51.494;-2.626;2022-10-31T11:40:24;13.73;;;4.65;;
70153;SDS011;57519;51.494;-2.626;2022-10-31T11:42:51;14.50;;;4.25;;
70153;SDS011;57519;51.494;-2.626;2022-10-31T11:47:49;15.07;;;4.78;;
70153;SDS011;57519;51.494;-2.626;2022-10-31T11:50:20;12.80;;;5.00;;
70153;SDS011;57519;51.494;-2.626;2022-10-31T11:52:49;13.65;;;4.72;;
70153;SDS011;57519;51.494;-2.626;2022-10-31T11:55:25;12.70;;;4.90;;
70153;SDS011;57519;51.494;-2.626;2022-10-31T11:57:56;9.68;;;4.55;;
70153;SDS011;57519;51.494;-2.626;2022-10-31T12:08:28;13.35;;;4.93;;
70153;SDS011;57519;51.494;-2.626;2022-10-31T12:19:42;15.50;;;5.32;;
70153;SDS011;57519;51.494;-2.626;2022-10-31T12:22:26;13.05;;;4.72;;
70153;SDS011;57519;51.494;-2.626;2022-10-31T12:36:10;9.25;;;3.58;;
70153;SDS011;57519;51.494;-2.626;2022-10-31T12:41:44;12.52;;;4.45;;
70153;SDS011;57519;51.494;-2.626;2022-10-31T12:57:56;9.50;;;5.07;;
70153;SDS011;57519;51.494;-2.626;2022-10-31T13:00:26;8.45;;;3.75;;
70153;SDS011;57519;51.494;-2.626;2022-10-31T13:03:00;10.93;;;4.43;;
70153;SDS011;57519;51.494;-2.626;2022-10-31T13:05:43;11.82;;;4.45;;
70153;SDS011;57519;51.494;-2.626;2022-10-31T13:10:43;12.00;;;5.07;;
70153;SDS011;57519;51.494;-2.626;2022-10-31T13:13:14;10.88;;;3.58;;
70153;SDS011;57519;51.494;-2.626;2022-10-31T13:15:54;8.48;;;3.88;;
70153;SDS011;57519;51.494;-2.626;2022-10-31T13:18:32;8.93;;;3.92;;
70153;SDS011;57519;51.494;-2.626;2022-10-31T13:21:02;9.18;;;3.95;;
70153;SDS011;57519;51.494;-2.626;2022-10-31T13:23:33;10.17;;;3.90;;
70153;SDS011;57519;51.494;-2.626;2022-10-31T13:26:12;7.57;;;3.40;;
70153;SDS011;57519;51.494;-2.626;2022-10-31T13:28:44;11.20;;;3.45;;
70153;SDS011;57519;51.494;-2.626;2022-10-31T13:31:13;7.97;;;3.58;;
70153;SDS011;57519;51.494;-2.626;2022-10-31T13:33:46;6.20;;;3.53;;
70153;SDS011;57519;51.494;-2.626;2022-10-31T13:44:22;9.43;;;3.70;;
70153;SDS011;57519;51.494;-2.626;2022-10-31T13:46:50;13.52;;;5.97;;
70153;SDS011;57519;51.494;-2.626;2022-10-31T13:54:46;11.45;;;4.78;;
70153;SDS011;57519;51.494;-2.626;2022-10-31T13:57:17;8.53;;;3.47;;
70153;SDS011;57519;51.494;-2.626;2022-10-31T13:59:48;6.30;;;3.35;;
70153;SDS011;57519;51.494;-2.626;2022-10-31T14:02:17;9.25;;;4.18;;
70153;SDS011;57519;51.494;-2.626;2022-10-31T14:04:50;10.18;;;3.97;;
70153;SDS011;57519;51.494;-2.626;2022-10-31T14:07:20;7.80;;;3.42;;
70153;SDS011;57519;51.494;-2.626;2022-10-31T14:12:36;6.38;;;3.22;;
70153;SDS011;57519;51.494;-2.626;2022-10-31T14:15:23;10.27;;;4.60;;
70153;SDS011;57519;51.494;-2.626;2022-10-31T14:20:39;12.48;;;4.45;;
70153;SDS011;57519;51.494;-2.626;2022-10-31T14:25:53;13.32;;;4.82;;
70153;SDS011;57519;51.494;-2.626;2022-10-31T14:28:30;8.57;;;3.93;;
70153;SDS011;57519;51.494;-2.626;2022-10-31T14:30:58;9.65;;;4.03;;
70153;SDS011;57519;51.494;-2.626;2022-10-31T14:33:25;10.40;;;4.00;;
70153;SDS011;57519;51.494;-2.626;2022-10-31T14:35:55;8.70;;;3.87;;
70153;SDS011;57519;51.494;-2.626;2022-10-31T14:46:26;11.68;;;4.45;;
70153;SDS011;57519;51.494;-2.626;2022-10-31T14:51:36;9.35;;;4.15;;
70153;SDS011;57519;51.494;-2.626;2022-10-31T14:54:06;8.87;;;3.90;;
70153;SDS011;57519;51.494;-2.626;2022-10-31T14:56:37;10.20;;;3.65;;
70153;SDS011;57519;51.494;-2.626;2022-10-31T14:59:13;15.35;;;4.70;;
70153;SDS011;57519;51.494;-2.626;2022-10-31T15:01:40;8.73;;;4.25;;
70153;SDS011;57519;51.494;-2.626;2022-10-31T15:04:20;11.07;;;4.30;;
70153;SDS011;57519;51.494;-2.626;2022-10-31T15:06:49;13.23;;;4.73;;
70153;SDS011;57519;51.494;-2.626;2022-10-31T15:09:30;10.27;;;4.30;;
70153;SDS011;57519;51.494;-2.626;2022-10-31T15:12:16;10.60;;;4.75;;
70153;SDS011;57519;51.494;-2.626;2022-10-31T15:14:46;14.85;;;5.28;;
70153;SDS011;57519;51.494;-2.626;2022-10-31T15:17:11;12.40;;;4.27;;
70153;SDS011;57519;51.494;-2.626;2022-10-31T15:19:37;10.07;;;3.58;;
70153;SDS011;57519;51.494;-2.626;2022-10-31T15:22:03;27.50;;;8.37;;
70153;SDS011;57519;51.494;-2.626;2022-10-31T15:24:35;12.73;;;5.32;;
70153;SDS011;57519;51.494;-2.626;2022-10-31T15:27:03;11.00;;;4.70;;
70153;SDS011;57519;51.494;-2.626;2022-10-31T15:29:30;11.52;;;4.70;;
70153;SDS011;57519;51.494;-2.626;2022-10-31T15:31:57;17.73;;;5.97;;
70153;SDS011;57519;51.494;-2.626;2022-10-31T15:34:34;13.10;;;5.00;;
70153;SDS011;57519;51.494;-2.626;2022-10-31T15:37:03;10.13;;;5.07;;
70153;SDS011;57519;51.494;-2.626;2022-10-31T15:39:29;13.32;;;5.65;;
70153;SDS011;57519;51.494;-2.626;2022-10-31T15:41:56;14.00;;;5.70;;
70153;SDS011;57519;51.494;-2.626;2022-10-31T15:44:26;11.27;;;5.30;;
70153;SDS011;57519;51.494;-2.626;2022-10-31T15:46:55;8.35;;;4.82;;
70153;SDS011;57519;51.494;-2.626;2022-10-31T15:49:38;10.35;;;5.55;;
70153;SDS011;57519;51.494;-2.626;2022-10-31T15:52:09;13.55;;;5.88;;
70153;SDS011;57519;51.494;-2.626;2022-10-31T15:54:43;13.73;;;6.27;;
70153;SDS011;57519;51.494;-2.626;2022-10-31T15:57:12;14.63;;;5.90;;
70153;SDS011;57519;51.494;-2.626;2022-10-31T15:59:40;12.75;;;5.53;;
70153;SDS011;57519;51.494;-2.626;2022-10-31T16:02:11;14.67;;;6.00;;
70153;SDS011;57519;51.494;-2.626;2022-10-31T16:04:47;15.63;;;6.60;;
70153;SDS011;57519;51.494;-2.626;2022-10-31T16:07:15;14.55;;;7.38;;
70153;SDS011;57519;51.494;-2.626;2022-10-31T16:12:22;18.00;;;6.82;;
70153;SDS011;57519;51.494;-2.626;2022-10-31T16:14:53;19.27;;;7.70;;
70153;SDS011;57519;51.494;-2.626;2022-10-31T16:17:20;16.13;;;7.35;;
70153;SDS011;57519;51.494;-2.626;2022-10-31T16:19:52;10.90;;;6.93;;
70153;SDS011;57519;51.494;-2.626;2022-10-31T16:22:23;10.02;;;5.90;;
70153;SDS011;57519;51.494;-2.626;2022-10-31T16:27:30;15.50;;;8.93;;
70153;SDS011;57519;51.494;-2.626;2022-10-31T16:29:58;13.00;;;8.95;;
70153;SDS011;57519;51.494;-2.626;2022-10-31T16:32:36;15.45;;;8.38;;
70153;SDS011;57519;51.494;-2.626;2022-10-31T16:35:17;16.65;;;9.93;;
70153;SDS011;57519;51.494;-2.626;2022-10-31T16:38:02;17.85;;;9.93;;
70153;SDS011;57519;51.494;-2.626;2022-10-31T16:40:29;13.93;;;8.23;;
70153;SDS011;57519;51.494;-2.626;2022-10-31T16:42:56;17.42;;;8.45;;
70153;SDS011;57519;51.494;-2.626;2022-10-31T16:45:24;19.67;;;8.43;;
70153;SDS011;57519;51.494;-2.626;2022-10-31T16:47:51;16.83;;;9.05;;
70153;SDS011;57519;51.494;-2.626;2022-10-31T16:50:20;22.53;;;8.87;;
70153;SDS011;57519;51.494;-2.626;2022-10-31T16:52:47;37.28;;;12.50;;
70153;SDS011;57519;51.494;-2.626;2022-10-31T16:55:13;14.70;;;7.47;;
70153;SDS011;57519;51.494;-2.626;2022-10-31T16:57:44;15.55;;;7.28;;
70153;SDS011;57519;51.494;-2.626;2022-10-31T17:00:12;17.92;;;7.50;;
70153;SDS011;57519;51.494;-2.626;2022-10-31T17:02:43;17.63;;;8.35;;
70153;SDS011;57519;51.494;-2.626;2022-10-31T17:05:12;12.67;;;7.50;;